sensor_id;sensor_type;location;lat;lon;timestamp;P1;durP1;ratioP1;P2;durP2;ratioP2
22715;SDS011;11525;51.152;4.456;2023-08-12T00:01:34;17.85;;;5.53;;
22715;SDS011;11525;51.152;4.456;2023-08-12T00:04:00;12.43;;;6.05;;
22715;SDS011;11525;51.152;4.456;2023-08-12T00:06:26;10.40;;;5.78;;
22715;SDS011;11525;51.152;4.456;2023-08-12T00:08:53;13.93;;;6.07;;
22715;SDS011;11525;51.152;4.456;2023-08-12T00:11:18;15.10;;;6.28;;
22715;SDS011;11525;51.152;4.456;2023-08-12T00:13:44;17.08;;;6.60;;
22715;SDS011;11525;51.152;4.456;2023-08-12T00:16:09;14.98;;;6.50;;
22715;SDS011;11525;51.152;4.456;2023-08-12T00:18:35;15.93;;;7.60;;
22715;SDS011;11525;51.152;4.456;2023-08-12T00:21:08;16.67;;;7.05;;
22715;SDS011;11525;51.152;4.456;2023-08-12T00:23:37;13.18;;;6.93;;
22715;SDS011;11525;51.152;4.456;2023-08-12T00:26:08;13.70;;;7.70;;
22715;SDS011;11525;51.152;4.456;2023-08-12T00:28:34;12.80;;;7.13;;
22715;SDS011;11525;51.152;4.456;2023-08-12T00:30:59;16.90;;;7.72;;
22715;SDS011;11525;51.152;4.456;2023-08-12T00:33:25;13.10;;;7.53;;
22715;SDS011;11525;51.152;4.456;2023-08-12T00:35:51;16.17;;;7.82;;
22715;SDS011;11525;51.152;4.456;2023-08-12T00:38:17;11.13;;;6.90;;
22715;SDS011;11525;51.152;4.456;2023-08-12T00:40:42;14.27;;;7.40;;
22715;SDS011;11525;51.152;4.456;2023-08-12T00:43:08;13.52;;;7.55;;
22715;SDS011;11525;51.152;4.456;2023-08-12T00:45:34;16.02;;;7.90;;
22715;SDS011;11525;51.152;4.456;2023-08-12T00:48:00;13.57;;;7.57;;
22715;SDS011;11525;51.152;4.456;2023-08-12T00:50:27;11.65;;;7.07;;
22715;SDS011;11525;51.152;4.456;2023-08-12T00:52:53;17.25;;;7.60;;
22715;SDS011;11525;51.152;4.456;2023-08-12T00:55:19;13.07;;;7.25;;
22715;SDS011;11525;51.152;4.456;2023-08-12T00:57:45;11.43;;;6.95;;
22715;SDS011;11525;51.152;4.456;2023-08-12T01:00:11;13.20;;;7.55;;
22715;SDS011;11525;51.152;4.456;2023-08-12T01:02:38;16.55;;;7.75;;
22715;SDS011;11525;51.152;4.456;2023-08-12T01:05:04;14.80;;;6.63;;
22715;SDS011;11525;51.152;4.456;2023-08-12T01:07:30;13.35;;;6.38;;
22715;SDS011;11525;51.152;4.456;2023-08-12T01:09:56;15.25;;;6.60;;
22715;SDS011;11525;51.152;4.456;2023-08-12T01:12:27;9.35;;;6.10;;
22715;SDS011;11525;51.152;4.456;2023-08-12T01:17:49;11.77;;;5.55;;
22715;SDS011;11525;51.152;4.456;2023-08-12T01:20:18;12.13;;;6.05;;
22715;SDS011;11525;51.152;4.456;2023-08-12T01:25:35;12.82;;;5.78;;
22715;SDS011;11525;51.152;4.456;2023-08-12T01:28:00;13.00;;;6.55;;
22715;SDS011;11525;51.152;4.456;2023-08-12T01:30:26;12.27;;;5.40;;
22715;SDS011;11525;51.152;4.456;2023-08-12T01:32:53;11.02;;;5.80;;
22715;SDS011;11525;51.152;4.456;2023-08-12T01:35:41;10.07;;;5.18;;
22715;SDS011;11525;51.152;4.456;2023-08-12T01:38:12;15.55;;;6.03;;
22715;SDS011;11525;51.152;4.456;2023-08-12T01:40:38;12.25;;;5.53;;
22715;SDS011;11525;51.152;4.456;2023-08-12T01:43:05;10.98;;;5.78;;
22715;SDS011;11525;51.152;4.456;2023-08-12T01:45:33;11.10;;;5.28;;
22715;SDS011;11525;51.152;4.456;2023-08-12T01:47:59;9.48;;;5.65;;
22715;SDS011;11525;51.152;4.456;2023-08-12T01:50:25;15.80;;;6.13;;
22715;SDS011;11525;51.152;4.456;2023-08-12T01:52:50;9.68;;;5.25;;
22715;SDS011;11525;51.152;4.456;2023-08-12T01:55:16;10.38;;;5.82;;
22715;SDS011;11525;51.152;4.456;2023-08-12T01:57:42;10.93;;;5.72;;
22715;SDS011;11525;51.152;4.456;2023-08-12T02:00:08;11.10;;;5.82;;
22715;SDS011;11525;51.152;4.456;2023-08-12T02:02:34;16.10;;;6.20;;
22715;SDS011;11525;51.152;4.456;2023-08-12T02:05:00;12.23;;;6.32;;
22715;SDS011;11525;51.152;4.456;2023-08-12T02:07:25;10.45;;;5.78;;
22715;SDS011;11525;51.152;4.456;2023-08-12T02:09:51;12.80;;;5.80;;
22715;SDS011;11525;51.152;4.456;2023-08-12T02:12:16;13.68;;;6.68;;
22715;SDS011;11525;51.152;4.456;2023-08-12T02:14:42;14.98;;;6.32;;
22715;SDS011;11525;51.152;4.456;2023-08-12T02:17:08;11.60;;;6.40;;
22715;SDS011;11525;51.152;4.456;2023-08-12T02:19:34;12.93;;;6.53;;
22715;SDS011;11525;51.152;4.456;2023-08-12T02:22:00;12.70;;;7.00;;
22715;SDS011;11525;51.152;4.456;2023-08-12T02:24:26;10.45;;;6.45;;
22715;SDS011;11525;51.152;4.456;2023-08-12T02:26:52;8.73;;;5.63;;
22715;SDS011;11525;51.152;4.456;2023-08-12T02:29:18;14.25;;;6.25;;
22715;SDS011;11525;51.152;4.456;2023-08-12T02:31:44;15.70;;;6.70;;
22715;SDS011;11525;51.152;4.456;2023-08-12T02:34:10;12.23;;;6.50;;
22715;SDS011;11525;51.152;4.456;2023-08-12T02:36:35;12.07;;;6.53;;
22715;SDS011;11525;51.152;4.456;2023-08-12T02:39:01;14.55;;;6.78;;
22715;SDS011;11525;51.152;4.456;2023-08-12T02:41:27;10.15;;;6.32;;
22715;SDS011;11525;51.152;4.456;2023-08-12T02:43:53;11.98;;;6.88;;
22715;SDS011;11525;51.152;4.456;2023-08-12T02:46:18;10.57;;;6.70;;
22715;SDS011;11525;51.152;4.456;2023-08-12T02:48:45;10.43;;;6.43;;
22715;SDS011;11525;51.152;4.456;2023-08-12T02:51:12;10.70;;;6.60;;
22715;SDS011;11525;51.152;4.456;2023-08-12T02:53:38;13.25;;;7.00;;
22715;SDS011;11525;51.152;4.456;2023-08-12T02:56:04;13.43;;;6.97;;
22715;SDS011;11525;51.152;4.456;2023-08-12T02:58:30;12.27;;;6.60;;
22715;SDS011;11525;51.152;4.456;2023-08-12T03:00:55;7.65;;;6.47;;
22715;SDS011;11525;51.152;4.456;2023-08-12T03:03:21;11.15;;;6.22;;
22715;SDS011;11525;51.152;4.456;2023-08-12T03:05:47;13.02;;;6.85;;
22715;SDS011;11525;51.152;4.456;2023-08-12T03:08:13;13.05;;;7.28;;
22715;SDS011;11525;51.152;4.456;2023-08-12T03:10:40;10.82;;;6.60;;
22715;SDS011;11525;51.152;4.456;2023-08-12T03:13:06;17.48;;;6.95;;
22715;SDS011;11525;51.152;4.456;2023-08-12T03:15:32;13.05;;;7.40;;
22715;SDS011;11525;51.152;4.456;2023-08-12T03:17:57;12.85;;;6.68;;
22715;SDS011;11525;51.152;4.456;2023-08-12T03:20:23;9.02;;;6.22;;
22715;SDS011;11525;51.152;4.456;2023-08-12T03:22:49;10.50;;;6.18;;
22715;SDS011;11525;51.152;4.456;2023-08-12T03:25:14;11.38;;;5.97;;
22715;SDS011;11525;51.152;4.456;2023-08-12T03:27:40;13.48;;;6.63;;
22715;SDS011;11525;51.152;4.456;2023-08-12T03:30:06;14.32;;;7.63;;
22715;SDS011;11525;51.152;4.456;2023-08-12T03:32:33;16.20;;;7.30;;
22715;SDS011;11525;51.152;4.456;2023-08-12T03:34:58;15.23;;;7.50;;
22715;SDS011;11525;51.152;4.456;2023-08-12T03:37:25;15.13;;;7.72;;
22715;SDS011;11525;51.152;4.456;2023-08-12T03:39:50;13.35;;;7.38;;
22715;SDS011;11525;51.152;4.456;2023-08-12T03:42:16;14.57;;;7.78;;
22715;SDS011;11525;51.152;4.456;2023-08-12T03:44:42;20.40;;;8.85;;
22715;SDS011;11525;51.152;4.456;2023-08-12T03:47:08;14.52;;;8.65;;
22715;SDS011;11525;51.152;4.456;2023-08-12T03:49:34;14.25;;;8.05;;
22715;SDS011;11525;51.152;4.456;2023-08-12T03:52:00;14.80;;;8.93;;
22715;SDS011;11525;51.152;4.456;2023-08-12T03:54:25;17.73;;;9.50;;
22715;SDS011;11525;51.152;4.456;2023-08-12T03:56:51;16.27;;;10.05;;
22715;SDS011;11525;51.152;4.456;2023-08-12T03:59:17;14.77;;;9.10;;
22715;SDS011;11525;51.152;4.456;2023-08-12T04:01:42;16.23;;;8.65;;
22715;SDS011;11525;51.152;4.456;2023-08-12T04:04:08;17.55;;;8.20;;
22715;SDS011;11525;51.152;4.456;2023-08-12T04:06:34;12.25;;;7.53;;
22715;SDS011;11525;51.152;4.456;2023-08-12T04:08:59;15.63;;;7.30;;
22715;SDS011;11525;51.152;4.456;2023-08-12T04:11:25;13.25;;;6.70;;
22715;SDS011;11525;51.152;4.456;2023-08-12T04:13:50;13.85;;;6.72;;
22715;SDS011;11525;51.152;4.456;2023-08-12T04:16:16;15.35;;;7.03;;
22715;SDS011;11525;51.152;4.456;2023-08-12T04:18:42;12.70;;;6.78;;
22715;SDS011;11525;51.152;4.456;2023-08-12T04:21:08;8.95;;;6.05;;
22715;SDS011;11525;51.152;4.456;2023-08-12T04:23:33;10.35;;;5.97;;
22715;SDS011;11525;51.152;4.456;2023-08-12T04:25:59;13.85;;;6.32;;
22715;SDS011;11525;51.152;4.456;2023-08-12T04:28:26;12.05;;;5.90;;
22715;SDS011;11525;51.152;4.456;2023-08-12T04:30:51;12.35;;;6.53;;
22715;SDS011;11525;51.152;4.456;2023-08-12T04:33:17;14.48;;;7.22;;
22715;SDS011;11525;51.152;4.456;2023-08-12T04:35:45;13.82;;;6.32;;
22715;SDS011;11525;51.152;4.456;2023-08-12T04:38:11;9.77;;;6.43;;
22715;SDS011;11525;51.152;4.456;2023-08-12T04:40:40;12.20;;;7.05;;
22715;SDS011;11525;51.152;4.456;2023-08-12T04:43:07;12.57;;;6.63;;
22715;SDS011;11525;51.152;4.456;2023-08-12T04:45:33;12.65;;;7.15;;
22715;SDS011;11525;51.152;4.456;2023-08-12T04:47:59;15.93;;;7.78;;
22715;SDS011;11525;51.152;4.456;2023-08-12T04:50:25;13.40;;;8.50;;
22715;SDS011;11525;51.152;4.456;2023-08-12T04:52:54;9.70;;;7.53;;
22715;SDS011;11525;51.152;4.456;2023-08-12T04:55:20;10.43;;;8.15;;
22715;SDS011;11525;51.152;4.456;2023-08-12T04:57:45;13.15;;;8.20;;
22715;SDS011;11525;51.152;4.456;2023-08-12T05:00:11;12.73;;;8.85;;
22715;SDS011;11525;51.152;4.456;2023-08-12T05:02:37;15.68;;;9.20;;
22715;SDS011;11525;51.152;4.456;2023-08-12T05:05:04;13.68;;;9.15;;
22715;SDS011;11525;51.152;4.456;2023-08-12T05:07:30;12.00;;;9.55;;
22715;SDS011;11525;51.152;4.456;2023-08-12T05:09:56;12.90;;;9.30;;
22715;SDS011;11525;51.152;4.456;2023-08-12T05:12:22;14.65;;;10.07;;
22715;SDS011;11525;51.152;4.456;2023-08-12T05:14:47;12.80;;;8.60;;
22715;SDS011;11525;51.152;4.456;2023-08-12T05:17:13;14.07;;;9.35;;
22715;SDS011;11525;51.152;4.456;2023-08-12T05:19:39;9.32;;;7.88;;
22715;SDS011;11525;51.152;4.456;2023-08-12T05:22:04;13.18;;;9.38;;
22715;SDS011;11525;51.152;4.456;2023-08-12T05:24:30;12.77;;;8.00;;
22715;SDS011;11525;51.152;4.456;2023-08-12T05:26:56;11.90;;;8.77;;
22715;SDS011;11525;51.152;4.456;2023-08-12T05:29:21;10.48;;;8.00;;
22715;SDS011;11525;51.152;4.456;2023-08-12T05:31:47;9.60;;;7.07;;
22715;SDS011;11525;51.152;4.456;2023-08-12T05:34:13;9.30;;;7.55;;
22715;SDS011;11525;51.152;4.456;2023-08-12T05:36:38;7.70;;;6.43;;
22715;SDS011;11525;51.152;4.456;2023-08-12T05:39:04;6.90;;;6.22;;
22715;SDS011;11525;51.152;4.456;2023-08-12T05:41:30;7.97;;;5.95;;
22715;SDS011;11525;51.152;4.456;2023-08-12T05:43:55;7.53;;;6.18;;
22715;SDS011;11525;51.152;4.456;2023-08-12T05:46:21;8.90;;;6.32;;
22715;SDS011;11525;51.152;4.456;2023-08-12T05:48:47;6.93;;;5.82;;
22715;SDS011;11525;51.152;4.456;2023-08-12T05:51:12;6.20;;;5.50;;
22715;SDS011;11525;51.152;4.456;2023-08-12T05:53:38;5.85;;;5.22;;
22715;SDS011;11525;51.152;4.456;2023-08-12T05:56:04;6.43;;;4.90;;
22715;SDS011;11525;51.152;4.456;2023-08-12T05:58:30;7.40;;;5.07;;
22715;SDS011;11525;51.152;4.456;2023-08-12T06:00:55;6.22;;;5.07;;
22715;SDS011;11525;51.152;4.456;2023-08-12T06:03:21;6.95;;;5.07;;
22715;SDS011;11525;51.152;4.456;2023-08-12T06:05:47;4.70;;;4.25;;
22715;SDS011;11525;51.152;4.456;2023-08-12T06:08:13;5.10;;;4.60;;
22715;SDS011;11525;51.152;4.456;2023-08-12T06:10:39;5.00;;;4.60;;
22715;SDS011;11525;51.152;4.456;2023-08-12T06:13:05;6.03;;;4.53;;
22715;SDS011;11525;51.152;4.456;2023-08-12T06:15:31;4.70;;;4.25;;
22715;SDS011;11525;51.152;4.456;2023-08-12T06:17:58;4.85;;;4.38;;
22715;SDS011;11525;51.152;4.456;2023-08-12T06:20:24;4.55;;;3.75;;
22715;SDS011;11525;51.152;4.456;2023-08-12T06:22:50;4.03;;;3.63;;
22715;SDS011;11525;51.152;4.456;2023-08-12T06:25:17;9.68;;;3.67;;
22715;SDS011;11525;51.152;4.456;2023-08-12T06:27:43;3.83;;;3.20;;
22715;SDS011;11525;51.152;4.456;2023-08-12T06:30:09;3.90;;;3.40;;
22715;SDS011;11525;51.152;4.456;2023-08-12T06:32:35;2.67;;;2.38;;
22715;SDS011;11525;51.152;4.456;2023-08-12T06:35:01;2.88;;;2.15;;
22715;SDS011;11525;51.152;4.456;2023-08-12T06:37:27;3.63;;;1.30;;
22715;SDS011;11525;51.152;4.456;2023-08-12T06:39:53;1.80;;;1.33;;
22715;SDS011;11525;51.152;4.456;2023-08-12T06:42:18;3.72;;;1.13;;
22715;SDS011;11525;51.152;4.456;2023-08-12T06:44:45;1.73;;;1.20;;
22715;SDS011;11525;51.152;4.456;2023-08-12T06:47:11;2.20;;;1.00;;
22715;SDS011;11525;51.152;4.456;2023-08-12T06:49:36;1.60;;;1.02;;
22715;SDS011;11525;51.152;4.456;2023-08-12T06:52:02;1.67;;;0.80;;
22715;SDS011;11525;51.152;4.456;2023-08-12T06:54:28;1.50;;;1.00;;
22715;SDS011;11525;51.152;4.456;2023-08-12T06:56:53;0.93;;;0.90;;
22715;SDS011;11525;51.152;4.456;2023-08-12T06:59:19;2.20;;;1.10;;
22715;SDS011;11525;51.152;4.456;2023-08-12T07:01:45;1.50;;;1.10;;
22715;SDS011;11525;51.152;4.456;2023-08-12T07:04:10;1.58;;;0.75;;
22715;SDS011;11525;51.152;4.456;2023-08-12T07:06:36;1.10;;;0.80;;
22715;SDS011;11525;51.152;4.456;2023-08-12T07:09:01;1.58;;;0.70;;
22715;SDS011;11525;51.152;4.456;2023-08-12T07:11:28;0.93;;;0.80;;
22715;SDS011;11525;51.152;4.456;2023-08-12T07:13:54;1.48;;;1.13;;
22715;SDS011;11525;51.152;4.456;2023-08-12T07:16:19;0.93;;;0.90;;
22715;SDS011;11525;51.152;4.456;2023-08-12T07:18:45;1.50;;;1.35;;
22715;SDS011;11525;51.152;4.456;2023-08-12T07:21:10;6.45;;;1.33;;
22715;SDS011;11525;51.152;4.456;2023-08-12T07:23:36;4.82;;;3.30;;
22715;SDS011;11525;51.152;4.456;2023-08-12T07:26:02;3.92;;;2.58;;
22715;SDS011;11525;51.152;4.456;2023-08-12T07:28:27;4.32;;;2.80;;
22715;SDS011;11525;51.152;4.456;2023-08-12T07:30:53;3.88;;;3.05;;
22715;SDS011;11525;51.152;4.456;2023-08-12T07:33:19;3.97;;;2.50;;
22715;SDS011;11525;51.152;4.456;2023-08-12T07:35:46;4.95;;;3.28;;
22715;SDS011;11525;51.152;4.456;2023-08-12T07:38:12;4.05;;;2.90;;
22715;SDS011;11525;51.152;4.456;2023-08-12T07:40:38;3.17;;;2.60;;
22715;SDS011;11525;51.152;4.456;2023-08-12T07:43:03;5.32;;;2.33;;
22715;SDS011;11525;51.152;4.456;2023-08-12T07:45:30;6.85;;;2.88;;
22715;SDS011;11525;51.152;4.456;2023-08-12T07:47:55;5.68;;;2.70;;
22715;SDS011;11525;51.152;4.456;2023-08-12T07:50:21;6.57;;;3.13;;
22715;SDS011;11525;51.152;4.456;2023-08-12T07:52:47;4.25;;;2.75;;
22715;SDS011;11525;51.152;4.456;2023-08-12T07:55:13;5.05;;;2.63;;
22715;SDS011;11525;51.152;4.456;2023-08-12T07:57:39;4.97;;;2.50;;
22715;SDS011;11525;51.152;4.456;2023-08-12T08:00:04;3.90;;;2.78;;
22715;SDS011;11525;51.152;4.456;2023-08-12T08:02:32;5.57;;;2.88;;
22715;SDS011;11525;51.152;4.456;2023-08-12T08:04:58;9.82;;;3.13;;
22715;SDS011;11525;51.152;4.456;2023-08-12T08:07:24;6.63;;;2.20;;
22715;SDS011;11525;51.152;4.456;2023-08-12T08:09:50;6.40;;;2.08;;
22715;SDS011;11525;51.152;4.456;2023-08-12T08:12:16;4.55;;;2.15;;
22715;SDS011;11525;51.152;4.456;2023-08-12T08:14:42;4.30;;;2.22;;
22715;SDS011;11525;51.152;4.456;2023-08-12T08:17:08;5.85;;;2.58;;
22715;SDS011;11525;51.152;4.456;2023-08-12T08:19:33;5.32;;;2.60;;
22715;SDS011;11525;51.152;4.456;2023-08-12T08:21:59;5.88;;;2.80;;
22715;SDS011;11525;51.152;4.456;2023-08-12T08:24:25;6.75;;;2.50;;
22715;SDS011;11525;51.152;4.456;2023-08-12T08:26:51;6.10;;;3.63;;
22715;SDS011;11525;51.152;4.456;2023-08-12T08:29:17;9.48;;;5.97;;
22715;SDS011;11525;51.152;4.456;2023-08-12T08:31:42;9.65;;;6.80;;
22715;SDS011;11525;51.152;4.456;2023-08-12T08:34:08;15.30;;;10.23;;
22715;SDS011;11525;51.152;4.456;2023-08-12T08:36:34;19.17;;;13.75;;
22715;SDS011;11525;51.152;4.456;2023-08-12T08:39:00;16.05;;;12.55;;
22715;SDS011;11525;51.152;4.456;2023-08-12T08:41:26;19.77;;;14.02;;
22715;SDS011;11525;51.152;4.456;2023-08-12T08:43:55;16.40;;;10.52;;
22715;SDS011;11525;51.152;4.456;2023-08-12T08:46:26;11.00;;;7.35;;
22715;SDS011;11525;51.152;4.456;2023-08-12T08:48:52;8.20;;;6.35;;
22715;SDS011;11525;51.152;4.456;2023-08-12T08:51:19;8.15;;;5.40;;
22715;SDS011;11525;51.152;4.456;2023-08-12T08:53:45;11.35;;;4.85;;
22715;SDS011;11525;51.152;4.456;2023-08-12T08:56:11;6.90;;;4.05;;
22715;SDS011;11525;51.152;4.456;2023-08-12T08:58:40;8.13;;;3.30;;
22715;SDS011;11525;51.152;4.456;2023-08-12T09:01:06;6.60;;;3.00;;
22715;SDS011;11525;51.152;4.456;2023-08-12T09:03:34;5.70;;;2.33;;
22715;SDS011;11525;51.152;4.456;2023-08-12T09:06:01;4.95;;;1.88;;
22715;SDS011;11525;51.152;4.456;2023-08-12T09:08:28;5.03;;;1.88;;
22715;SDS011;11525;51.152;4.456;2023-08-12T09:10:56;3.72;;;1.77;;
22715;SDS011;11525;51.152;4.456;2023-08-12T09:13:24;4.43;;;1.80;;
22715;SDS011;11525;51.152;4.456;2023-08-12T09:15:50;3.45;;;1.80;;
22715;SDS011;11525;51.152;4.456;2023-08-12T09:18:16;4.72;;;1.90;;
22715;SDS011;11525;51.152;4.456;2023-08-12T09:20:42;4.75;;;2.40;;
22715;SDS011;11525;51.152;4.456;2023-08-12T09:23:08;4.63;;;2.80;;
22715;SDS011;11525;51.152;4.456;2023-08-12T09:25:35;8.25;;;4.10;;
22715;SDS011;11525;51.152;4.456;2023-08-12T09:28:09;9.05;;;6.50;;
22715;SDS011;11525;51.152;4.456;2023-08-12T09:30:36;13.65;;;7.20;;
22715;SDS011;11525;51.152;4.456;2023-08-12T09:33:04;10.25;;;6.38;;
22715;SDS011;11525;51.152;4.456;2023-08-12T09:35:39;12.23;;;5.55;;
22715;SDS011;11525;51.152;4.456;2023-08-12T09:38:14;11.48;;;5.47;;
22715;SDS011;11525;51.152;4.456;2023-08-12T09:40:40;12.73;;;6.28;;
22715;SDS011;11525;51.152;4.456;2023-08-12T09:43:07;8.80;;;4.40;;
22715;SDS011;11525;51.152;4.456;2023-08-12T09:45:33;10.80;;;4.57;;
22715;SDS011;11525;51.152;4.456;2023-08-12T09:48:00;9.27;;;3.78;;
22715;SDS011;11525;51.152;4.456;2023-08-12T09:50:26;7.80;;;2.63;;
22715;SDS011;11525;51.152;4.456;2023-08-12T09:52:53;7.18;;;2.45;;
22715;SDS011;11525;51.152;4.456;2023-08-12T09:55:21;7.55;;;2.35;;
22715;SDS011;11525;51.152;4.456;2023-08-12T09:57:48;6.97;;;2.03;;
22715;SDS011;11525;51.152;4.456;2023-08-12T10:00:17;5.72;;;2.03;;
22715;SDS011;11525;51.152;4.456;2023-08-12T10:02:48;5.82;;;2.42;;
22715;SDS011;11525;51.152;4.456;2023-08-12T10:05:22;8.50;;;2.10;;
22715;SDS011;11525;51.152;4.456;2023-08-12T10:07:51;6.53;;;2.22;;
22715;SDS011;11525;51.152;4.456;2023-08-12T10:10:17;5.97;;;2.20;;
22715;SDS011;11525;51.152;4.456;2023-08-12T10:12:44;5.35;;;1.90;;
22715;SDS011;11525;51.152;4.456;2023-08-12T10:15:10;5.55;;;2.38;;
22715;SDS011;11525;51.152;4.456;2023-08-12T10:17:36;6.40;;;1.90;;
22715;SDS011;11525;51.152;4.456;2023-08-12T10:20:04;3.92;;;1.60;;
22715;SDS011;11525;51.152;4.456;2023-08-12T10:22:30;9.48;;;2.05;;
22715;SDS011;11525;51.152;4.456;2023-08-12T10:24:59;6.22;;;2.08;;
22715;SDS011;11525;51.152;4.456;2023-08-12T10:27:27;5.30;;;2.40;;
22715;SDS011;11525;51.152;4.456;2023-08-12T10:29:55;6.25;;;2.17;;
22715;SDS011;11525;51.152;4.456;2023-08-12T10:32:22;5.25;;;2.05;;
22715;SDS011;11525;51.152;4.456;2023-08-12T10:34:56;5.93;;;1.98;;
22715;SDS011;11525;51.152;4.456;2023-08-12T10:37:23;7.88;;;2.10;;
22715;SDS011;11525;51.152;4.456;2023-08-12T10:39:51;4.40;;;1.60;;
22715;SDS011;11525;51.152;4.456;2023-08-12T10:45:06;5.43;;;1.98;;
22715;SDS011;11525;51.152;4.456;2023-08-12T10:47:32;6.95;;;1.67;;
22715;SDS011;11525;51.152;4.456;2023-08-12T10:49:59;7.65;;;2.75;;
22715;SDS011;11525;51.152;4.456;2023-08-12T10:52:29;7.35;;;2.30;;
22715;SDS011;11525;51.152;4.456;2023-08-12T10:57:40;7.57;;;2.08;;
22715;SDS011;11525;51.152;4.456;2023-08-12T11:00:10;6.85;;;2.30;;
22715;SDS011;11525;51.152;4.456;2023-08-12T11:02:39;9.07;;;2.08;;
22715;SDS011;11525;51.152;4.456;2023-08-12T11:05:09;5.35;;;2.10;;
22715;SDS011;11525;51.152;4.456;2023-08-12T11:07:44;11.52;;;2.75;;
22715;SDS011;11525;51.152;4.456;2023-08-12T11:10:15;8.73;;;2.40;;
22715;SDS011;11525;51.152;4.456;2023-08-12T11:15:16;7.15;;;2.33;;
22715;SDS011;11525;51.152;4.456;2023-08-12T11:17:42;5.80;;;2.35;;
22715;SDS011;11525;51.152;4.456;2023-08-12T11:20:11;8.63;;;2.08;;
22715;SDS011;11525;51.152;4.456;2023-08-12T11:22:38;5.60;;;2.13;;
22715;SDS011;11525;51.152;4.456;2023-08-12T11:25:06;9.55;;;2.30;;
22715;SDS011;11525;51.152;4.456;2023-08-12T11:30:10;5.93;;;2.20;;
22715;SDS011;11525;51.152;4.456;2023-08-12T11:32:43;5.47;;;2.10;;
22715;SDS011;11525;51.152;4.456;2023-08-12T11:35:13;6.75;;;2.15;;
22715;SDS011;11525;51.152;4.456;2023-08-12T11:37:42;6.90;;;2.13;;
22715;SDS011;11525;51.152;4.456;2023-08-12T11:40:09;7.18;;;2.10;;
22715;SDS011;11525;51.152;4.456;2023-08-12T11:42:36;9.98;;;2.58;;
22715;SDS011;11525;51.152;4.456;2023-08-12T11:45:04;7.93;;;2.45;;
22715;SDS011;11525;51.152;4.456;2023-08-12T11:47:30;9.23;;;2.55;;
22715;SDS011;11525;51.152;4.456;2023-08-12T11:49:56;3.60;;;1.70;;
22715;SDS011;11525;51.152;4.456;2023-08-12T11:52:22;7.78;;;1.92;;
22715;SDS011;11525;51.152;4.456;2023-08-12T11:54:51;6.20;;;1.80;;
22715;SDS011;11525;51.152;4.456;2023-08-12T11:57:18;5.28;;;2.30;;
22715;SDS011;11525;51.152;4.456;2023-08-12T11:59:44;5.68;;;1.85;;
22715;SDS011;11525;51.152;4.456;2023-08-12T12:02:10;8.50;;;1.98;;
22715;SDS011;11525;51.152;4.456;2023-08-12T12:04:36;4.95;;;1.75;;
22715;SDS011;11525;51.152;4.456;2023-08-12T12:07:02;5.15;;;2.17;;
22715;SDS011;11525;51.152;4.456;2023-08-12T12:09:31;8.80;;;2.72;;
22715;SDS011;11525;51.152;4.456;2023-08-12T12:11:57;6.15;;;2.30;;
22715;SDS011;11525;51.152;4.456;2023-08-12T12:14:24;5.63;;;2.13;;
22715;SDS011;11525;51.152;4.456;2023-08-12T12:16:50;6.07;;;2.30;;
22715;SDS011;11525;51.152;4.456;2023-08-12T12:21:42;5.90;;;1.60;;
22715;SDS011;11525;51.152;4.456;2023-08-12T12:24:10;6.57;;;2.13;;
22715;SDS011;11525;51.152;4.456;2023-08-12T12:26:36;7.75;;;1.90;;
22715;SDS011;11525;51.152;4.456;2023-08-12T12:29:03;6.95;;;1.70;;
22715;SDS011;11525;51.152;4.456;2023-08-12T12:31:31;6.05;;;2.03;;
22715;SDS011;11525;51.152;4.456;2023-08-12T12:33:58;5.13;;;1.75;;
22715;SDS011;11525;51.152;4.456;2023-08-12T12:36:25;8.18;;;2.20;;
22715;SDS011;11525;51.152;4.456;2023-08-12T12:38:51;6.90;;;1.63;;
22715;SDS011;11525;51.152;4.456;2023-08-12T12:41:16;4.32;;;1.50;;
22715;SDS011;11525;51.152;4.456;2023-08-12T12:43:42;5.07;;;1.83;;
22715;SDS011;11525;51.152;4.456;2023-08-12T12:46:08;4.78;;;1.75;;
22715;SDS011;11525;51.152;4.456;2023-08-12T12:48:33;5.43;;;1.90;;
22715;SDS011;11525;51.152;4.456;2023-08-12T12:50:59;7.70;;;1.50;;
22715;SDS011;11525;51.152;4.456;2023-08-12T12:53:25;3.47;;;1.20;;
22715;SDS011;11525;51.152;4.456;2023-08-12T12:55:50;5.10;;;1.95;;
22715;SDS011;11525;51.152;4.456;2023-08-12T12:58:16;3.50;;;1.40;;
22715;SDS011;11525;51.152;4.456;2023-08-12T13:00:42;7.70;;;1.58;;
22715;SDS011;11525;51.152;4.456;2023-08-12T13:03:08;7.07;;;1.83;;
22715;SDS011;11525;51.152;4.456;2023-08-12T13:05:33;6.50;;;2.08;;
22715;SDS011;11525;51.152;4.456;2023-08-12T13:07:59;5.90;;;1.83;;
22715;SDS011;11525;51.152;4.456;2023-08-12T13:10:25;5.28;;;1.67;;
22715;SDS011;11525;51.152;4.456;2023-08-12T13:12:50;3.80;;;1.70;;
22715;SDS011;11525;51.152;4.456;2023-08-12T13:15:16;5.57;;;1.52;;
22715;SDS011;11525;51.152;4.456;2023-08-12T13:17:42;5.03;;;1.58;;
22715;SDS011;11525;51.152;4.456;2023-08-12T13:20:07;6.90;;;1.70;;
22715;SDS011;11525;51.152;4.456;2023-08-12T13:22:34;8.70;;;1.90;;
22715;SDS011;11525;51.152;4.456;2023-08-12T13:25:00;4.95;;;1.65;;
22715;SDS011;11525;51.152;4.456;2023-08-12T13:27:26;5.63;;;1.73;;
22715;SDS011;11525;51.152;4.456;2023-08-12T13:29:52;6.10;;;1.63;;
22715;SDS011;11525;51.152;4.456;2023-08-12T13:32:17;7.53;;;2.20;;
22715;SDS011;11525;51.152;4.456;2023-08-12T13:34:43;5.40;;;1.80;;
22715;SDS011;11525;51.152;4.456;2023-08-12T13:37:11;7.60;;;1.77;;
22715;SDS011;11525;51.152;4.456;2023-08-12T13:39:37;5.57;;;1.95;;
22715;SDS011;11525;51.152;4.456;2023-08-12T13:42:02;7.18;;;1.83;;
22715;SDS011;11525;51.152;4.456;2023-08-12T13:44:28;7.57;;;2.05;;
22715;SDS011;11525;51.152;4.456;2023-08-12T13:46:53;6.43;;;1.90;;
22715;SDS011;11525;51.152;4.456;2023-08-12T13:49:19;5.40;;;2.33;;
22715;SDS011;11525;51.152;4.456;2023-08-12T13:51:45;3.22;;;1.75;;
22715;SDS011;11525;51.152;4.456;2023-08-12T13:54:10;8.30;;;1.88;;
22715;SDS011;11525;51.152;4.456;2023-08-12T13:56:36;6.78;;;1.73;;
22715;SDS011;11525;51.152;4.456;2023-08-12T13:59:02;6.30;;;1.92;;
22715;SDS011;11525;51.152;4.456;2023-08-12T14:01:27;4.78;;;1.92;;
22715;SDS011;11525;51.152;4.456;2023-08-12T14:03:53;7.60;;;1.63;;
22715;SDS011;11525;51.152;4.456;2023-08-12T14:06:19;6.32;;;1.90;;
22715;SDS011;11525;51.152;4.456;2023-08-12T14:08:44;4.80;;;1.90;;
22715;SDS011;11525;51.152;4.456;2023-08-12T14:11:10;7.22;;;1.92;;
22715;SDS011;11525;51.152;4.456;2023-08-12T14:13:35;6.97;;;1.95;;
22715;SDS011;11525;51.152;4.456;2023-08-12T14:16:01;6.20;;;1.73;;
22715;SDS011;11525;51.152;4.456;2023-08-12T14:18:27;6.70;;;1.90;;
22715;SDS011;11525;51.152;4.456;2023-08-12T14:20:52;3.97;;;1.52;;
22715;SDS011;11525;51.152;4.456;2023-08-12T14:23:18;7.05;;;1.70;;
22715;SDS011;11525;51.152;4.456;2023-08-12T14:25:43;6.80;;;1.90;;
22715;SDS011;11525;51.152;4.456;2023-08-12T14:28:09;6.22;;;1.90;;
22715;SDS011;11525;51.152;4.456;2023-08-12T14:30:35;7.35;;;2.10;;
22715;SDS011;11525;51.152;4.456;2023-08-12T14:33:02;6.72;;;1.75;;
22715;SDS011;11525;51.152;4.456;2023-08-12T14:35:27;6.68;;;1.75;;
22715;SDS011;11525;51.152;4.456;2023-08-12T14:37:53;6.28;;;1.90;;
22715;SDS011;11525;51.152;4.456;2023-08-12T14:40:19;6.05;;;1.65;;
22715;SDS011;11525;51.152;4.456;2023-08-12T14:42:44;5.55;;;1.83;;
22715;SDS011;11525;51.152;4.456;2023-08-12T14:45:10;9.00;;;2.15;;
22715;SDS011;11525;51.152;4.456;2023-08-12T14:47:36;5.13;;;2.03;;
22715;SDS011;11525;51.152;4.456;2023-08-12T14:50:02;7.10;;;2.53;;
22715;SDS011;11525;51.152;4.456;2023-08-12T14:52:29;6.25;;;2.33;;
22715;SDS011;11525;51.152;4.456;2023-08-12T14:54:54;7.32;;;2.00;;
22715;SDS011;11525;51.152;4.456;2023-08-12T14:57:20;6.75;;;2.78;;